Terminal Aerodrome Forecast
Issued by NWS

Home | Current Version | Previous Version | Graphics & Text | Print | Product List | Glossary On
Versions: 1 2 3 4 5 6 7 8 9 10 11 12 13 14
195
FTUS43 KGRB 122039 AAA
TAFCWA
TAF AMD
KCWA 122039Z 1221/1318 32017G25KT P6SM -SHSN BKN035
     FM122300 31010KT P6SM SCT035
     FM131400 29006KT P6SM SCT030=

USA.gov is the U.S. government's official web portal to all federal, state and local government web resources and services.